createdAt,value
2023-05-13T00:00:54.997Z,14.77
2023-05-13T00:03:21.719Z,13.70
2023-05-13T00:05:48.424Z,14.07
2023-05-13T00:08:15.054Z,13.63
2023-05-13T00:10:41.593Z,13.30
2023-05-13T00:13:08.389Z,13.13
2023-05-13T00:15:34.972Z,14.43
2023-05-13T00:18:01.585Z,12.90
2023-05-13T00:20:30.610Z,14.02
2023-05-13T00:22:57.171Z,12.80
2023-05-13T00:25:24.164Z,13.80
2023-05-13T00:27:51.257Z,13.32
2023-05-13T00:30:18.122Z,13.80
2023-05-13T00:32:44.723Z,13.02
2023-05-13T00:35:11.342Z,12.43
2023-05-13T00:37:38.010Z,13.18
2023-05-13T00:40:05.003Z,12.80
2023-05-13T00:42:31.534Z,13.45
2023-05-13T00:44:58.038Z,14.10
2023-05-13T00:47:24.833Z,12.43
2023-05-13T00:49:52.048Z,13.02
2023-05-13T00:52:18.619Z,12.15
2023-05-13T00:54:45.298Z,12.23
2023-05-13T00:57:11.789Z,12.85
2023-05-13T00:59:38.361Z,12.52
2023-05-13T01:02:22.474Z,12.50
2023-05-13T01:04:58.204Z,12.38
2023-05-13T01:07:24.679Z,12.45
2023-05-13T01:10:11.592Z,12.35
2023-05-13T01:12:43.835Z,11.25
2023-05-13T01:15:15.096Z,12.48
2023-05-13T01:17:53.490Z,11.15
2023-05-13T01:20:24.596Z,12.52
2023-05-13T01:22:51.389Z,10.95
2023-05-13T01:25:17.935Z,11.70
2023-05-13T01:27:44.891Z,12.52
2023-05-13T01:30:12.122Z,11.13
2023-05-13T01:32:38.724Z,10.35
2023-05-13T01:35:07.370Z,11.25
2023-05-13T01:37:33.888Z,11.30
2023-05-13T01:40:01.031Z,10.80
2023-05-13T01:42:30.052Z,11.52
2023-05-13T01:44:57.591Z,11.18
2023-05-13T01:47:24.132Z,10.35
2023-05-13T01:49:50.754Z,11.10
2023-05-13T01:52:17.353Z,11.73
2023-05-13T01:54:44.007Z,10.35
2023-05-13T01:57:10.508Z,11.27
2023-05-13T01:59:37.406Z,10.82
2023-05-13T02:02:04.303Z,10.63
2023-05-13T02:04:30.892Z,10.30
2023-05-13T02:06:57.407Z,10.63
2023-05-13T02:09:23.902Z,9.75
2023-05-13T02:11:51.114Z,9.98
2023-05-13T02:14:17.746Z,10.57
2023-05-13T02:16:44.467Z,10.65
2023-05-13T02:19:11.094Z,10.07
2023-05-13T02:21:37.896Z,10.23
2023-05-13T02:24:04.673Z,10.20
2023-05-13T02:26:31.222Z,9.73
2023-05-13T02:28:57.766Z,10.20
2023-05-13T02:31:24.324Z,9.50
2023-05-13T02:33:50.911Z,9.73
2023-05-13T02:36:17.463Z,10.20
2023-05-13T02:38:44.059Z,9.93
2023-05-13T02:41:10.740Z,9.98
2023-05-13T02:43:37.650Z,9.73
2023-05-13T02:46:04.176Z,9.70
2023-05-13T02:48:31.058Z,9.93
2023-05-13T02:50:57.590Z,9.80
2023-05-13T02:53:24.342Z,9.15
2023-05-13T02:55:50.915Z,9.02
2023-05-13T02:58:17.444Z,8.73
2023-05-13T03:00:43.994Z,8.93
2023-05-13T03:03:10.716Z,8.88
2023-05-13T03:05:37.530Z,9.15
2023-05-13T03:08:04.815Z,9.32
2023-05-13T03:10:31.319Z,8.48
2023-05-13T03:12:57.888Z,8.68
2023-05-13T03:15:24.465Z,9.23
2023-05-13T03:17:51.041Z,8.18
2023-05-13T03:20:17.761Z,8.57
2023-05-13T03:22:44.742Z,9.07
2023-05-13T03:25:11.315Z,8.93
2023-05-13T03:27:38.881Z,8.13
2023-05-13T03:30:06.075Z,8.68
2023-05-13T03:32:32.653Z,7.97
2023-05-13T03:35:01.004Z,7.95
2023-05-13T03:37:27.733Z,8.52
2023-05-13T03:39:54.334Z,8.73
2023-05-13T03:42:21.082Z,8.38
2023-05-13T03:44:47.678Z,8.23
2023-05-13T03:47:14.201Z,7.57
2023-05-13T03:49:40.813Z,7.93
2023-05-13T03:52:10.307Z,7.32
2023-05-13T03:54:36.859Z,7.47
2023-05-13T03:57:03.497Z,7.45
2023-05-13T03:59:30.046Z,7.82
2023-05-13T04:01:56.599Z,7.78
2023-05-13T04:04:23.240Z,7.65
2023-05-13T04:06:49.818Z,7.97
2023-05-13T04:09:16.349Z,7.00
2023-05-13T04:11:42.914Z,8.02
2023-05-13T04:16:36.500Z,7.50
2023-05-13T04:19:03.350Z,7.57
2023-05-13T04:21:29.901Z,6.95
2023-05-13T04:23:56.408Z,7.45
2023-05-13T04:26:22.961Z,7.10
2023-05-13T04:28:49.448Z,6.70
2023-05-13T04:31:15.980Z,7.20
2023-05-13T04:33:42.571Z,6.93
2023-05-13T04:36:09.237Z,6.85
2023-05-13T04:38:35.811Z,7.57
2023-05-13T04:41:02.379Z,6.68
2023-05-13T04:43:29.222Z,6.18
2023-05-13T04:45:55.878Z,6.55
2023-05-13T04:48:22.412Z,6.30
2023-05-13T04:50:51.134Z,6.90
2023-05-13T04:53:18.126Z,6.55
2023-05-13T04:55:47.635Z,5.93
2023-05-13T04:58:14.187Z,6.22
2023-05-13T05:00:40.807Z,6.70
2023-05-13T05:03:07.404Z,6.32
2023-05-13T05:05:33.977Z,5.72
2023-05-13T05:08:00.684Z,5.97
2023-05-13T05:10:27.593Z,5.93
2023-05-13T05:12:54.274Z,6.15
2023-05-13T05:15:20.988Z,5.85
2023-05-13T05:17:47.641Z,5.68
2023-05-13T05:20:14.347Z,5.47
2023-05-13T05:22:42.193Z,6.05
2023-05-13T05:25:10.136Z,6.15
2023-05-13T05:27:36.643Z,5.80
2023-05-13T05:30:03.619Z,6.35
2023-05-13T05:32:30.201Z,5.57
2023-05-13T05:34:56.826Z,5.50
2023-05-13T05:37:23.433Z,5.50
2023-05-13T05:39:50.005Z,5.82
2023-05-13T05:42:16.631Z,5.00
2023-05-13T05:44:43.207Z,5.15
2023-05-13T05:47:09.743Z,5.45
2023-05-13T05:49:36.270Z,5.68
2023-05-13T05:52:03.152Z,5.20
2023-05-13T05:54:30.818Z,5.68
2023-05-13T05:56:57.464Z,5.47
2023-05-13T05:59:23.996Z,5.20
2023-05-13T06:01:50.538Z,6.18
2023-05-13T06:04:17.377Z,5.78
2023-05-13T06:06:44.137Z,6.28
2023-05-13T06:09:10.915Z,5.82
2023-05-13T06:11:37.551Z,6.22
2023-05-13T06:14:04.128Z,6.32
2023-05-13T06:16:30.802Z,5.85
2023-05-13T06:18:57.393Z,6.57
2023-05-13T06:21:23.962Z,6.55
2023-05-13T06:23:51.012Z,12.07
2023-05-13T06:26:17.510Z,11.00
2023-05-13T06:28:44.136Z,11.10
2023-05-13T06:31:10.729Z,11.50
2023-05-13T06:33:37.336Z,10.95
2023-05-13T06:36:04.744Z,11.60
2023-05-13T06:38:31.276Z,9.85
2023-05-13T06:40:57.807Z,10.90
2023-05-13T06:43:24.356Z,11.18
2023-05-13T06:45:50.938Z,10.48
2023-05-13T06:48:17.487Z,12.10
2023-05-13T06:50:44.095Z,11.50
2023-05-13T06:53:13.768Z,13.10
2023-05-13T06:55:41.805Z,12.18
2023-05-13T06:58:09.134Z,12.18
2023-05-13T07:00:40.428Z,13.70
2023-05-13T07:03:07.649Z,11.95
2023-05-13T07:05:34.823Z,10.35
2023-05-13T07:08:06.602Z,12.63
2023-05-13T07:10:34.034Z,15.15
2023-05-13T07:13:02.125Z,16.25
2023-05-13T07:15:28.909Z,15.95
2023-05-13T07:17:55.587Z,14.90
2023-05-13T07:20:23.581Z,16.08
2023-05-13T07:22:50.975Z,14.68
2023-05-13T07:25:18.526Z,14.60
2023-05-13T07:27:45.452Z,15.07
2023-05-13T07:30:12.650Z,15.98
2023-05-13T07:32:39.579Z,16.23
2023-05-13T07:35:07.169Z,17.73
2023-05-13T07:37:33.698Z,17.35
2023-05-13T07:40:00.209Z,17.35
2023-05-13T07:42:28.260Z,20.55
2023-05-13T07:44:54.778Z,22.75
2023-05-13T07:47:21.472Z,22.00
2023-05-13T07:49:48.041Z,21.98
2023-05-13T07:52:14.586Z,22.02
2023-05-13T07:54:41.138Z,21.83
2023-05-13T07:57:07.700Z,23.75
2023-05-13T07:59:34.278Z,24.85
2023-05-13T08:02:00.770Z,23.75
2023-05-13T08:04:27.726Z,26.25
2023-05-13T08:06:54.288Z,26.27
2023-05-13T08:09:20.848Z,26.58
2023-05-13T08:11:47.385Z,26.23
2023-05-13T08:14:13.932Z,26.88
2023-05-13T08:16:41.006Z,24.70
2023-05-13T08:19:07.719Z,23.40
2023-05-13T08:21:34.270Z,24.65
2023-05-13T08:24:00.828Z,23.95
2023-05-13T08:26:27.756Z,24.35
2023-05-13T08:28:55.213Z,24.65
2023-05-13T08:31:24.157Z,24.17
2023-05-13T08:33:51.747Z,24.00
2023-05-13T08:36:18.320Z,24.85
2023-05-13T08:38:44.869Z,23.98
2023-05-13T08:41:15.568Z,24.85
2023-05-13T08:43:47.074Z,24.13
2023-05-13T08:46:16.721Z,24.92
2023-05-13T08:48:43.933Z,26.63
2023-05-13T08:51:10.636Z,25.67
2023-05-13T08:53:39.133Z,25.90
2023-05-13T08:56:07.802Z,26.83
2023-05-13T08:58:34.348Z,26.83
2023-05-13T09:01:01.666Z,27.15
2023-05-13T09:03:29.209Z,24.58
2023-05-13T09:05:55.764Z,25.10
2023-05-13T09:08:22.305Z,25.95
2023-05-13T09:10:49.238Z,25.63
2023-05-13T09:13:18.161Z,26.92
2023-05-13T09:15:44.884Z,27.77
2023-05-13T09:18:12.782Z,27.08
2023-05-13T09:20:39.426Z,27.42
2023-05-13T09:23:08.333Z,27.58
2023-05-13T09:25:36.476Z,27.40
2023-05-13T09:28:05.808Z,28.65
2023-05-13T09:30:43.787Z,27.48
2023-05-13T09:33:21.889Z,25.83
2023-05-13T09:35:53.521Z,26.65
2023-05-13T09:38:22.282Z,25.63
2023-05-13T09:41:00.033Z,26.80
2023-05-13T09:43:28.950Z,25.20
2023-05-13T09:45:57.527Z,24.67
2023-05-13T09:48:29.519Z,25.85
2023-05-13T09:50:57.978Z,25.70
2023-05-13T09:53:28.487Z,25.45
2023-05-13T09:55:56.808Z,27.10
2023-05-13T09:58:25.505Z,25.67
2023-05-13T10:00:52.577Z,27.05
2023-05-13T10:03:19.529Z,24.95
2023-05-13T10:05:47.323Z,26.48
2023-05-13T10:08:15.531Z,26.08
2023-05-13T10:10:45.714Z,26.42
2023-05-13T10:13:15.468Z,26.70
2023-05-13T10:15:50.317Z,26.10
2023-05-13T10:18:17.945Z,27.08
2023-05-13T10:20:44.813Z,27.33
2023-05-13T10:23:12.698Z,26.58
2023-05-13T10:25:40.086Z,25.17
2023-05-13T10:28:06.790Z,25.88
2023-05-13T10:30:35.878Z,25.67
2023-05-13T10:33:03.971Z,27.42
2023-05-13T10:35:38.088Z,24.40
2023-05-13T10:38:44.511Z,24.05
2023-05-13T10:41:37.196Z,25.38
2023-05-13T10:44:03.981Z,26.58
2023-05-13T10:46:30.726Z,24.85
2023-05-13T10:48:59.842Z,25.17
2023-05-13T10:51:26.938Z,24.95
2023-05-13T10:53:55.722Z,24.88
2023-05-13T10:56:24.513Z,25.80
2023-05-13T10:59:05.176Z,23.83
2023-05-13T11:01:43.928Z,23.45
2023-05-13T11:04:19.529Z,23.50
2023-05-13T11:06:48.054Z,24.00
2023-05-13T11:09:29.443Z,21.98
2023-05-13T11:11:57.961Z,23.45
2023-05-13T11:14:30.243Z,22.55
2023-05-13T11:17:02.622Z,23.63
2023-05-13T11:19:36.047Z,23.17
2023-05-13T11:22:16.364Z,24.05
2023-05-13T11:24:46.253Z,22.13
2023-05-13T11:27:21.667Z,22.13
2023-05-13T11:29:52.629Z,20.35
2023-05-13T11:32:56.487Z,23.23
2023-05-13T11:35:33.620Z,21.13
2023-05-13T11:38:02.274Z,20.85
2023-05-13T11:40:29.884Z,21.10
2023-05-13T11:42:57.144Z,20.77
2023-05-13T11:45:25.149Z,21.70
2023-05-13T11:47:53.196Z,19.80
2023-05-13T11:50:27.304Z,20.50
2023-05-13T11:52:56.255Z,20.48
2023-05-13T11:55:27.101Z,18.98
2023-05-13T11:57:54.148Z,20.38
2023-05-13T12:00:31.584Z,19.60
2023-05-13T12:02:59.361Z,18.88
2023-05-13T12:05:26.882Z,19.35
2023-05-13T12:07:58.077Z,18.42
2023-05-13T12:10:26.575Z,18.52
2023-05-13T12:12:53.946Z,19.08
2023-05-13T12:15:22.859Z,18.90
2023-05-13T12:17:50.781Z,18.50
2023-05-13T12:20:20.259Z,18.77
2023-05-13T12:22:46.863Z,18.40
2023-05-13T12:25:57.838Z,17.38
2023-05-13T12:28:26.824Z,17.77
2023-05-13T12:31:01.826Z,16.63
2023-05-13T12:33:33.765Z,16.90
2023-05-13T12:36:32.104Z,17.52
2023-05-13T12:39:06.735Z,16.83
2023-05-13T12:41:41.652Z,15.38
2023-05-13T12:44:10.315Z,15.35
2023-05-13T12:46:37.588Z,15.63
2023-05-13T12:49:05.371Z,15.50
2023-05-13T12:51:35.156Z,16.77
2023-05-13T12:54:01.801Z,15.77
2023-05-13T12:56:28.382Z,15.38
2023-05-13T12:58:55.102Z,15.32
2023-05-13T13:01:22.133Z,15.63
2023-05-13T13:03:49.154Z,14.88
2023-05-13T13:06:16.285Z,15.43
2023-05-13T13:08:42.825Z,14.57
2023-05-13T13:11:09.851Z,14.88
2023-05-13T13:13:38.897Z,13.50
2023-05-13T13:16:06.386Z,14.15
2023-05-13T13:18:33.054Z,13.82
2023-05-13T13:20:59.861Z,14.00
2023-05-13T13:23:26.422Z,13.20
2023-05-13T13:25:53.151Z,13.23
2023-05-13T13:28:19.864Z,14.25
2023-05-13T13:30:47.278Z,13.68
2023-05-13T13:33:15.633Z,13.73
2023-05-13T13:35:47.042Z,13.13
2023-05-13T13:38:14.242Z,13.50
2023-05-13T13:40:41.069Z,12.32
2023-05-13T13:43:08.362Z,12.80
2023-05-13T13:45:35.674Z,12.27
2023-05-13T13:48:02.723Z,12.63
2023-05-13T13:50:29.450Z,12.52
2023-05-13T13:52:56.009Z,12.63
2023-05-13T13:55:23.589Z,12.52
2023-05-13T13:57:50.864Z,12.05
2023-05-13T14:00:17.950Z,12.30
2023-05-13T14:02:44.610Z,12.50
2023-05-13T14:05:12.845Z,11.40
2023-05-13T14:07:39.663Z,11.93
2023-05-13T14:10:06.939Z,11.65
2023-05-13T14:12:33.830Z,11.45
2023-05-13T14:15:00.452Z,11.07
2023-05-13T14:17:27.072Z,11.85
2023-05-13T14:19:55.481Z,11.70
2023-05-13T14:22:23.775Z,11.35
2023-05-13T14:24:53.562Z,11.30
2023-05-13T14:27:20.779Z,10.40
2023-05-13T14:29:48.029Z,9.95
2023-05-13T14:32:14.671Z,10.57
2023-05-13T14:34:41.338Z,10.55
2023-05-13T14:37:08.275Z,10.52
2023-05-13T14:39:36.305Z,10.35
2023-05-13T14:42:03.682Z,10.13
2023-05-13T14:44:30.383Z,9.63
2023-05-13T14:46:57.075Z,9.65
2023-05-13T14:49:23.743Z,9.88
2023-05-13T14:51:50.356Z,9.63
2023-05-13T14:54:17.891Z,10.20
2023-05-13T14:56:44.684Z,9.23
2023-05-13T14:59:11.389Z,9.18
2023-05-13T15:01:38.355Z,9.40
2023-05-13T15:04:05.325Z,9.63
2023-05-13T15:06:32.033Z,9.15
2023-05-13T15:08:58.600Z,9.85
2023-05-13T15:11:27.311Z,8.73
2023-05-13T15:13:53.909Z,9.15
2023-05-13T15:16:20.436Z,9.07
2023-05-13T15:18:47.209Z,8.75
2023-05-13T15:21:13.820Z,8.82
2023-05-13T15:23:40.390Z,9.32
2023-05-13T15:26:06.871Z,8.77
2023-05-13T15:28:33.480Z,7.80
2023-05-13T15:31:00.139Z,8.00
2023-05-13T15:33:26.974Z,8.70
2023-05-13T15:35:53.520Z,8.55
2023-05-13T15:38:20.138Z,8.18
2023-05-13T15:40:47.416Z,8.88
2023-05-13T15:43:13.990Z,7.68
2023-05-13T15:45:40.731Z,7.63
2023-05-13T15:48:07.956Z,8.18
2023-05-13T15:50:34.786Z,7.90
2023-05-13T15:53:01.338Z,8.30
2023-05-13T15:55:27.889Z,7.88
2023-05-13T15:57:54.472Z,8.07
2023-05-13T16:00:21.321Z,6.75
2023-05-13T16:02:48.130Z,7.78
2023-05-13T16:05:19.108Z,8.05
2023-05-13T16:07:46.017Z,7.50
2023-05-13T16:10:12.600Z,7.35
2023-05-13T16:12:39.558Z,7.07
2023-05-13T16:15:06.868Z,7.45
2023-05-13T16:17:33.540Z,7.10
2023-05-13T16:20:00.349Z,7.22
2023-05-13T16:22:29.026Z,7.40
2023-05-13T16:25:00.878Z,6.80
2023-05-13T16:27:29.203Z,6.88
2023-05-13T16:29:56.559Z,6.88
2023-05-13T16:32:23.351Z,7.00
2023-05-13T16:34:50.044Z,6.00
2023-05-13T16:37:16.862Z,6.38
2023-05-13T16:39:44.044Z,7.05
2023-05-13T16:42:10.638Z,6.40
2023-05-13T16:44:37.281Z,7.25
2023-05-13T16:47:05.509Z,6.60
2023-05-13T16:49:32.046Z,6.75
2023-05-13T16:51:58.583Z,5.97
2023-05-13T16:54:25.553Z,5.55
2023-05-13T16:56:52.076Z,5.97
2023-05-13T16:59:21.064Z,6.30
2023-05-13T17:01:48.421Z,6.03
2023-05-13T17:04:15.681Z,6.15
2023-05-13T17:06:42.714Z,5.90
2023-05-13T17:09:09.664Z,6.22
2023-05-13T17:11:36.370Z,6.20
2023-05-13T17:14:04.645Z,6.15
2023-05-13T17:16:31.538Z,7.72
2023-05-13T17:19:01.211Z,8.60
2023-05-13T17:21:28.036Z,9.07
2023-05-13T17:23:54.584Z,7.18
2023-05-13T17:26:22.017Z,7.85
2023-05-13T17:28:49.630Z,7.25
2023-05-13T17:31:16.328Z,6.90
2023-05-13T17:33:42.968Z,5.95
2023-05-13T17:36:10.758Z,6.07
2023-05-13T17:38:37.896Z,7.47
2023-05-13T17:41:04.906Z,6.53
2023-05-13T17:43:31.560Z,6.55
2023-05-13T17:45:58.192Z,6.97
2023-05-13T17:48:25.548Z,6.38
2023-05-13T17:50:52.803Z,6.63
2023-05-13T17:53:19.875Z,6.25
2023-05-13T17:55:48.536Z,6.15
2023-05-13T17:58:16.062Z,6.47
2023-05-13T18:00:43.021Z,6.55
2023-05-13T18:03:09.630Z,6.57
2023-05-13T18:05:36.315Z,5.65
2023-05-13T18:08:02.987Z,6.18
2023-05-13T18:10:29.559Z,6.15
2023-05-13T18:12:56.134Z,5.60
2023-05-13T18:15:22.714Z,6.07
2023-05-13T18:17:49.584Z,6.03
2023-05-13T18:20:16.202Z,6.00
2023-05-13T18:22:42.790Z,6.03
2023-05-13T18:25:10.554Z,5.78
2023-05-13T18:27:37.215Z,5.32
2023-05-13T18:30:04.089Z,5.53
2023-05-13T18:32:30.953Z,5.93
2023-05-13T18:34:57.514Z,6.40
2023-05-13T18:37:24.097Z,5.85
2023-05-13T18:39:51.218Z,5.50
2023-05-13T18:42:17.790Z,5.93
2023-05-13T18:44:44.505Z,5.47
2023-05-13T18:47:11.483Z,5.60
2023-05-13T18:49:37.977Z,5.50
2023-05-13T18:52:04.731Z,5.75
2023-05-13T18:54:31.245Z,5.97
2023-05-13T18:56:57.826Z,5.63
2023-05-13T18:59:24.458Z,5.22
2023-05-13T19:01:51.147Z,5.80
2023-05-13T19:04:18.029Z,5.97
2023-05-13T19:06:44.811Z,5.47
2023-05-13T19:09:11.435Z,5.10
2023-05-13T19:11:37.990Z,5.80
2023-05-13T19:14:04.577Z,5.85
2023-05-13T19:16:31.138Z,6.28
2023-05-13T19:18:57.768Z,5.30
2023-05-13T19:21:24.451Z,5.63
2023-05-13T19:23:51.053Z,6.07
2023-05-13T19:26:17.726Z,5.55
2023-05-13T19:28:44.847Z,5.05
2023-05-13T19:31:11.436Z,5.28
2023-05-13T19:33:38.140Z,7.90
2023-05-13T19:36:05.582Z,6.80
2023-05-13T19:38:33.025Z,8.40
2023-05-13T19:40:59.854Z,9.05
2023-05-13T19:43:26.410Z,9.85
2023-05-13T19:45:55.477Z,9.85
2023-05-13T19:48:22.067Z,11.43
2023-05-13T19:50:48.659Z,11.98
2023-05-13T19:53:15.248Z,13.40
2023-05-13T19:55:41.793Z,12.93
2023-05-13T19:58:08.503Z,12.55
2023-05-13T20:00:35.079Z,13.20
2023-05-13T20:03:01.729Z,13.95
2023-05-13T20:05:28.518Z,14.07
2023-05-13T20:07:55.188Z,14.73
2023-05-13T20:10:22.078Z,13.75
2023-05-13T20:12:48.841Z,13.98
2023-05-13T20:15:17.827Z,13.70
2023-05-13T20:17:45.237Z,14.18
2023-05-13T20:20:12.101Z,13.35
2023-05-13T20:22:38.650Z,14.68
2023-05-13T20:25:05.619Z,13.63
2023-05-13T20:27:32.168Z,13.73
2023-05-13T20:30:00.209Z,13.85
2023-05-13T20:32:27.344Z,13.60
2023-05-13T20:34:54.532Z,13.18
2023-05-13T20:37:24.039Z,13.00
2023-05-13T20:39:51.341Z,12.70
2023-05-13T20:42:17.964Z,12.63
2023-05-13T20:44:46.326Z,13.38
2023-05-13T20:47:13.598Z,13.95
2023-05-13T20:49:43.650Z,13.15
2023-05-13T20:52:10.959Z,13.52
2023-05-13T20:54:38.004Z,12.57
2023-05-13T20:57:05.063Z,12.77
2023-05-13T20:59:31.683Z,12.68
2023-05-13T21:01:58.615Z,12.43
2023-05-13T21:04:28.440Z,13.57
2023-05-13T21:06:55.012Z,12.95
2023-05-13T21:09:21.596Z,13.23
2023-05-13T21:11:48.126Z,12.95
2023-05-13T21:14:14.830Z,12.82
2023-05-13T21:16:41.475Z,13.50
2023-05-13T21:19:08.254Z,12.75
2023-05-13T21:21:35.007Z,12.98
2023-05-13T21:24:01.591Z,12.10
2023-05-13T21:26:28.139Z,12.98
2023-05-13T21:28:54.727Z,12.90
2023-05-13T21:31:21.374Z,13.48
2023-05-13T21:33:48.876Z,13.95
2023-05-13T21:36:15.504Z,14.23
2023-05-13T21:38:42.056Z,14.77
2023-05-13T21:41:08.585Z,13.80
2023-05-13T21:43:35.128Z,14.25
2023-05-13T21:46:03.172Z,13.90
2023-05-13T21:48:29.807Z,13.45
2023-05-13T21:50:56.435Z,14.85
2023-05-13T21:53:23.001Z,14.50
2023-05-13T21:55:50.100Z,14.23
2023-05-13T21:58:16.650Z,14.98
2023-05-13T22:00:43.293Z,13.60
2023-05-13T22:03:09.937Z,13.40
2023-05-13T22:05:42.194Z,14.45
2023-05-13T22:08:08.774Z,13.77
2023-05-13T22:10:35.341Z,15.07
2023-05-13T22:13:01.870Z,13.90
2023-05-13T22:15:28.689Z,14.10
2023-05-13T22:17:55.355Z,15.27
2023-05-13T22:20:22.454Z,14.13
2023-05-13T22:22:49.272Z,14.13
2023-05-13T22:25:15.919Z,13.18
2023-05-13T22:27:42.482Z,14.48
2023-05-13T22:30:09.250Z,14.90
2023-05-13T22:32:38.242Z,14.68
2023-05-13T22:35:05.427Z,13.82
2023-05-13T22:37:32.019Z,14.48
2023-05-13T22:39:58.559Z,14.30
2023-05-13T22:42:25.830Z,14.38
2023-05-13T22:44:52.400Z,14.75
2023-05-13T22:47:19.021Z,13.90
2023-05-13T22:49:45.629Z,13.95
2023-05-13T22:52:12.189Z,14.20
2023-05-13T22:54:38.737Z,14.38
2023-05-13T22:57:05.462Z,13.88
2023-05-13T22:59:31.978Z,14.48
2023-05-13T23:01:58.652Z,14.40
2023-05-13T23:04:25.331Z,14.20
2023-05-13T23:06:52.363Z,14.70
2023-05-13T23:09:19.052Z,13.98
2023-05-13T23:11:45.851Z,14.30
2023-05-13T23:14:12.360Z,14.57
2023-05-13T23:16:39.097Z,13.80
2023-05-13T23:19:06.092Z,14.55
2023-05-13T23:21:32.686Z,14.05
2023-05-13T23:23:59.232Z,14.45
2023-05-13T23:26:25.828Z,14.30
2023-05-13T23:28:52.343Z,14.48
2023-05-13T23:31:18.892Z,13.60
2023-05-13T23:33:45.495Z,14.23
2023-05-13T23:36:12.516Z,14.00
2023-05-13T23:38:38.898Z,14.52
2023-05-13T23:41:05.448Z,14.07
2023-05-13T23:43:31.989Z,14.25
2023-05-13T23:45:58.626Z,13.98
2023-05-13T23:48:27.478Z,14.02
2023-05-13T23:50:54.444Z,14.02
2023-05-13T23:53:20.981Z,14.00
2023-05-13T23:55:47.535Z,14.07
2023-05-13T23:58:14.085Z,14.38
